Time;durP1;ratioP1;P1;durP2;ratioP2;P2;SDS_P1;SDS_P2;PMS_P1;PMS_P2;Temp;Humidity;BMP_temperature;BMP_pressure;BME280_temperature;BME280_humidity;BME280_pressure;Samples;Min_cycle;Max_cycle;Signal;HPM_P1;HPM_P2
2023/08/23 00:01:50;;;;;;;;;;;;;;;14.27;100.00;102004.16;5030881;28;20497;-73
2023/08/23 00:04:15;;;;;;;;;;;;;;;14.23;100.00;102006.25;5032756;28;20153;-72
2023/08/23 00:06:40;;;;;;;;;;;;;;;14.23;100.00;102017.06;5065042;28;20009;-73
2023/08/23 00:09:06;;;;;;;;;;;;;;;14.22;100.00;102020.72;5013721;28;19927;-73
2023/08/23 00:11:31;;;;;;;;;;;;;;;14.19;100.00;102017.38;5031096;28;20002;-73
2023/08/23 00:13:56;;;;;;;;;;;;;;;14.14;100.00;102016.88;5062641;28;20056;-73
2023/08/23 00:16:21;;;;;;;;;;;;;;;14.10;100.00;102008.13;5031714;28;20531;-73
2023/08/23 00:18:47;;;;;;;;;;;;;;;14.09;100.00;102009.09;5031402;28;20331;-73
2023/08/23 00:21:12;;;;;;;;;;;;;;;14.09;100.00;102009.09;5031706;28;19917;-73
2023/08/23 00:23:38;;;;;;;;;;;;;;;14.08;100.00;102010.06;5047279;28;19917;-73
2023/08/23 00:26:03;;;;;;;;;;;;;;;14.04;100.00;102000.47;5032371;28;19921;-73
2023/08/23 00:28:28;;;;;;;;;;;;;;;14.00;100.00;101993.59;5062548;28;19923;-73
2023/08/23 00:30:54;;;;;;;;;;;;;;;13.97;100.00;101991.97;5032967;28;19928;-73
2023/08/23 00:33:20;;;;;;;;;;;;;;;13.91;100.00;101992.44;5031974;28;19921;-73
2023/08/23 00:35:45;;;;;;;;;;;;;;;13.84;100.00;101989.31;5029873;28;20019;-73
2023/08/23 00:38:10;;;;;;;;;;;;;;;13.87;100.00;101999.91;5060836;28;19927;-73
2023/08/23 00:40:35;;;;;;;;;;;;;;;13.88;100.00;101990.81;5031589;28;19998;-73
2023/08/23 00:43:01;;;;;;;;;;;;;;;13.89;100.00;101995.25;5031722;28;20016;-73
2023/08/23 00:45:26;;;;;;;;;;;;;;;13.92;100.00;101996.84;5029998;28;20355;-73
2023/08/23 00:47:51;;;;;;;;;;;;;;;13.95;100.00;101991.22;5031065;28;20351;-73
2023/08/23 00:50:17;;;;;;;;;;;;;;;14.01;100.00;101992.63;5032378;28;19920;-73
2023/08/23 00:52:42;;;;;;;;;;;;;;;13.97;100.00;101986.56;5054780;28;20034;-73
2023/08/23 00:55:07;;;;;;;;;;;;;;;13.74;100.00;101954.06;5034782;28;19936;-73
2023/08/23 00:57:32;;;;;;;;;;;;;;;13.78;100.00;101978.97;5065679;28;19987;-73
2023/08/23 00:59:58;;;;;;;;;;;;;;;13.75;100.00;101977.38;5034340;28;19998;-73
2023/08/23 01:02:23;;;;;;;;;;;;;;;13.69;100.00;101977.81;5035494;28;19921;-73
2023/08/23 01:04:48;;;;;;;;;;;;;;;13.69;100.00;101976.97;5015788;28;20154;-74
2023/08/23 01:07:14;;;;;;;;;;;;;;;13.73;100.00;101984.72;5046928;28;19916;-73
2023/08/23 01:09:42;;;;;;;;;;;;;;;13.78;100.00;101973.56;5050571;28;19925;-73
2023/08/23 01:12:11;;;;;;;;;;;;;;;13.85;100.00;101977.56;5034348;28;20002;-73
2023/08/23 01:14:52;;;;;;;;;;;;;;;13.77;100.00;101974.56;5034842;28;20050;-73
2023/08/23 01:17:18;;;;;;;;;;;;;;;13.67;100.00;101977.06;5030206;28;19924;-73
2023/08/23 01:19:47;;;;;;;;;;;;;;;13.64;100.00;101980.84;5066215;28;20110;-73
2023/08/23 01:22:16;;;;;;;;;;;;;;;13.61;100.00;101989.16;5032030;28;19928;-73
2023/08/23 01:24:41;;;;;;;;;;;;;;;13.55;100.00;101986.06;5067650;28;19952;-73
2023/08/23 01:27:06;;;;;;;;;;;;;;;13.48;100.00;101991.03;5067311;28;20561;-73
2023/08/23 01:29:31;;;;;;;;;;;;;;;13.44;100.00;101987.69;5033939;28;20421;-73
2023/08/23 01:31:59;;;;;;;;;;;;;;;13.46;100.00;101993.84;5013682;28;20374;-73
2023/08/23 01:34:25;;;;;;;;;;;;;;;13.39;100.00;101991.66;5032169;28;19931;-73
2023/08/23 01:36:51;;;;;;;;;;;;;;;13.31;100.00;101984.13;5048287;28;19921;-73
2023/08/23 01:39:16;;;;;;;;;;;;;;;13.29;100.00;101988.75;5033878;28;19937;-73
2023/08/23 01:41:41;;;;;;;;;;;;;;;13.28;100.00;101978.94;5068393;28;20515;-73
2023/08/23 01:44:06;;;;;;;;;;;;;;;13.29;100.00;101972.59;5041894;28;20290;-73
2023/08/23 01:46:32;;;;;;;;;;;;;;;13.30;100.00;101980.56;5064568;28;19952;-73
2023/08/23 01:48:57;;;;;;;;;;;;;;;13.22;100.00;101985.66;5063699;28;19996;-73
2023/08/23 01:51:23;;;;;;;;;;;;;;;13.19;100.00;101989.41;5047649;28;19960;-73
2023/08/23 01:53:48;;;;;;;;;;;;;;;13.24;100.00;101986.41;5067407;28;19921;-73
2023/08/23 01:56:13;;;;;;;;;;;;;;;13.30;100.00;101996.72;5065521;28;19964;-73
2023/08/23 01:58:39;;;;;;;;;;;;;;;13.28;100.00;101997.81;5053980;28;20231;-73
2023/08/23 02:01:04;;;;;;;;;;;;;;;13.22;100.00;101990.16;5032851;28;20206;-73
2023/08/23 02:03:29;;;;;;;;;;;;;;;13.20;100.00;101991.13;5068193;28;20016;-73
2023/08/23 02:05:55;;;;;;;;;;;;;;;13.17;100.00;101991.34;5037371;28;19927;-73
2023/08/23 02:08:20;;;;;;;;;;;;;;;13.17;100.00;101980.56;5069858;28;19924;-73
2023/08/23 02:10:45;;;;;;;;;;;;;;;13.15;100.00;101989.75;5055159;28;19951;-73
2023/08/23 02:13:11;;;;;;;;;;;;;;;13.13;100.00;101976.34;5036648;28;20012;-73
2023/08/23 02:15:36;;;;;;;;;;;;;;;13.07;100.00;101979.50;5031146;28;19923;-73
2023/08/23 02:18:01;;;;;;;;;;;;;;;13.03;100.00;101978.84;5068519;28;19925;-73
2023/08/23 02:20:26;;;;;;;;;;;;;;;13.08;100.00;101967.75;5035928;28;20395;-74
2023/08/23 02:22:51;;;;;;;;;;;;;;;13.13;100.00;101973.66;5066423;28;19921;-73
2023/08/23 02:25:17;;;;;;;;;;;;;;;13.17;100.00;101980.56;5064852;28;19928;-73
2023/08/23 02:27:42;;;;;;;;;;;;;;;13.11;100.00;101964.81;5065634;28;19921;-73
2023/08/23 02:30:07;;;;;;;;;;;;;;;13.07;100.00;101966.03;5049713;28;19924;-73
2023/08/23 02:32:33;;;;;;;;;;;;;;;13.02;100.00;101973.56;5037456;28;19920;-73
2023/08/23 02:34:58;;;;;;;;;;;;;;;13.00;100.00;101972.81;5071262;28;19928;-73
2023/08/23 02:37:23;;;;;;;;;;;;;;;13.00;100.00;101970.97;5029584;28;19921;-73
2023/08/23 02:39:48;;;;;;;;;;;;;;;13.01;100.00;101972.69;5066552;28;19959;-73
2023/08/23 02:42:14;;;;;;;;;;;;;;;13.03;100.00;101975.28;5054877;28;19952;-73
2023/08/23 02:44:39;;;;;;;;;;;;;;;12.98;100.00;101966.66;5052423;28;20023;-73
2023/08/23 02:47:04;;;;;;;;;;;;;;;12.99;100.00;101969.25;5033494;28;19958;-73
2023/08/23 02:49:29;;;;;;;;;;;;;;;12.97;100.00;101967.63;5048833;28;19931;-73
2023/08/23 02:51:54;;;;;;;;;;;;;;;12.92;100.00;101964.38;5034505;28;19952;-73
2023/08/23 02:54:20;;;;;;;;;;;;;;;12.90;100.00;101968.06;5035499;28;20371;-73
2023/08/23 02:56:45;;;;;;;;;;;;;;;12.91;100.00;101963.53;5031849;28;20440;-73
2023/08/23 02:59:10;;;;;;;;;;;;;;;12.87;100.00;101970.97;5066911;28;19968;-73
2023/08/23 03:01:35;;;;;;;;;;;;;;;12.84;100.00;101962.22;5026039;28;19955;-74
2023/08/23 03:04:00;;;;;;;;;;;;;;;12.80;100.00;101963.41;5034836;28;19924;-73
2023/08/23 03:06:26;;;;;;;;;;;;;;;12.80;100.00;101958.91;5039010;28;20524;-73
2023/08/23 03:08:51;;;;;;;;;;;;;;;12.86;100.00;101963.00;5049635;28;20435;-73
2023/08/23 03:11:16;;;;;;;;;;;;;;;12.88;100.00;101956.50;5032861;28;19939;-73
2023/08/23 03:13:41;;;;;;;;;;;;;;;12.84;100.00;101957.72;5033134;28;19916;-73
2023/08/23 03:16:06;;;;;;;;;;;;;;;12.83;100.00;101961.38;5049588;28;19920;-73
2023/08/23 03:18:32;;;;;;;;;;;;;;;12.77;100.00;101955.53;5033875;28;19925;-74
2023/08/23 03:20:57;;;;;;;;;;;;;;;12.69;100.00;101954.25;5050040;28;19936;-73
2023/08/23 03:23:22;;;;;;;;;;;;;;;12.70;100.00;101955.09;5035159;28;19948;-73
2023/08/23 03:25:48;;;;;;;;;;;;;;;12.71;100.00;101959.53;5031252;28;19925;-73
2023/08/23 03:28:13;;;;;;;;;;;;;;;12.70;100.00;101945.22;5066285;28;19925;-73
2023/08/23 03:30:39;;;;;;;;;;;;;;;12.71;100.00;101944.22;5032643;28;20291;-73
2023/08/23 03:33:05;;;;;;;;;;;;;;;12.68;100.00;101946.25;5031053;28;20397;-74
2023/08/23 03:35:30;;;;;;;;;;;;;;;12.67;100.00;101944.53;5065691;28;19979;-73
2023/08/23 03:37:56;;;;;;;;;;;;;;;12.65;100.00;101949.16;5064857;28;19952;-73
2023/08/23 03:40:21;;;;;;;;;;;;;;;12.63;100.00;101949.28;5035056;28;20273;-73
2023/08/23 03:42:46;;;;;;;;;;;;;;;12.66;100.00;101957.16;5031910;28;20295;-73
2023/08/23 03:45:11;;;;;;;;;;;;;;;12.65;100.00;101955.44;5061502;28;20007;-73
2023/08/23 03:47:37;;;;;;;;;;;;;;;12.66;100.00;101965.25;5030157;28;19916;-73
2023/08/23 03:50:02;;;;;;;;;;;;;;;12.67;100.00;101964.28;5031710;28;20359;-73
2023/08/23 03:52:28;;;;;;;;;;;;;;;12.67;100.00;101958.88;5041427;28;19928;-73
2023/08/23 03:54:53;;;;;;;;;;;;;;;12.66;100.00;101951.78;5029294;28;19928;-73
2023/08/23 03:57:18;;;;;;;;;;;;;;;12.68;100.00;101952.53;5028041;28;19924;-73
2023/08/23 03:59:43;;;;;;;;;;;;;;;12.70;100.00;101953.28;5032431;28;19920;-73
2023/08/23 04:02:09;;;;;;;;;;;;;;;12.69;100.00;101954.25;5044294;28;20545;-73
2023/08/23 04:04:34;;;;;;;;;;;;;;;12.67;100.00;101960.72;5035767;28;19990;-73
2023/08/23 04:06:59;;;;;;;;;;;;;;;12.63;100.00;101964.56;5031583;28;19952;-73
2023/08/23 04:09:24;;;;;;;;;;;;;;;12.63;100.00;101964.56;5062949;28;19920;-73
2023/08/23 04:11:49;;;;;;;;;;;;;;;12.64;100.00;101967.19;5037633;28;19932;-73
2023/08/23 04:14:15;;;;;;;;;;;;;;;12.57;100.00;101957.78;5071317;28;20273;-73
2023/08/23 04:16:40;;;;;;;;;;;;;;;12.62;100.00;101961.03;5034100;28;20218;-73
2023/08/23 04:19:05;;;;;;;;;;;;;;;12.59;100.00;101958.53;5035063;28;19921;-73
2023/08/23 04:21:30;;;;;;;;;;;;;;;12.54;100.00;101975.03;5035448;28;19979;-73
2023/08/23 04:23:56;;;;;;;;;;;;;;;12.55;100.00;101965.09;5066992;28;19927;-73
2023/08/23 04:26:21;;;;;;;;;;;;;;;12.63;100.00;101969.97;5031633;28;19927;-73
2023/08/23 04:28:46;;;;;;;;;;;;;;;12.67;100.00;101966.09;5035292;28;19920;-73
2023/08/23 04:31:12;;;;;;;;;;;;;;;12.73;100.00;101966.53;5043907;28;19921;-73
2023/08/23 04:33:37;;;;;;;;;;;;;;;12.72;100.00;101975.56;5072098;28;20027;-73
2023/08/23 04:36:03;;;;;;;;;;;;;;;12.69;100.00;101965.03;5072285;28;19924;-73
2023/08/23 04:38:28;;;;;;;;;;;;;;;12.69;100.00;101969.53;5035464;28;19925;-74
2023/08/23 04:41:00;;;;;;;;;;;;;;;12.71;100.00;101963.06;5072934;28;19927;-73
2023/08/23 04:43:25;;;;;;;;;;;;;;;12.70;100.00;101961.38;5040425;28;19924;-74
2023/08/23 04:45:52;;;;;;;;;;;;;;;12.68;100.00;101973.22;5070883;28;19920;-73
2023/08/23 04:48:17;;;;;;;;;;;;;;;12.68;100.00;101971.41;5070582;28;19956;-73
2023/08/23 04:50:42;;;;;;;;;;;;;;;12.49;100.00;101947.53;5039280;28;19967;-73
2023/08/23 04:53:08;;;;;;;;;;;;;;;12.71;100.00;101973.00;5067460;28;19932;-73
2023/08/23 04:55:33;;;;;;;;;;;;;;;12.74;100.00;101972.78;5055730;28;20812;-74
2023/08/23 04:57:58;;;;;;;;;;;;;;;12.73;100.00;101966.53;5043287;28;19977;-73
2023/08/23 05:00:24;;;;;;;;;;;;;;;12.73;100.00;101965.69;5039654;28;19990;-73
2023/08/23 05:02:49;;;;;;;;;;;;;;;12.74;100.00;101965.56;5038214;28;19983;-73
2023/08/23 05:05:14;;;;;;;;;;;;;;;12.80;100.00;101964.28;5065959;28;19947;-74
2023/08/23 05:07:39;;;;;;;;;;;;;;;12.96;100.00;101972.19;5037272;28;19963;-73
2023/08/23 05:10:06;;;;;;;;;;;;;;;13.02;100.00;101960.94;5037445;28;20358;-73
2023/08/23 05:12:32;;;;;;;;;;;;;;;13.09;100.00;101947.03;5036454;28;20891;-73
2023/08/23 05:14:57;;;;;;;;;;;;;;;13.20;100.00;101952.53;5037423;28;20286;-73
2023/08/23 05:17:22;;;;;;;;;;;;;;;13.26;100.00;101946.69;5036585;28;19920;-73
2023/08/23 05:19:47;;;;;;;;;;;;;;;13.36;100.00;101955.00;5047173;28;19939;-74
2023/08/23 05:22:13;;;;;;;;;;;;;;;13.45;100.00;101953.50;5037720;28;19927;-74
2023/08/23 05:24:38;;;;;;;;;;;;;;;13.56;100.00;101955.41;5038687;28;20380;-74
2023/08/23 05:27:03;;;;;;;;;;;;;;;13.63;100.00;101951.31;5036663;28;20538;-74
2023/08/23 05:29:28;;;;;;;;;;;;;;;13.69;100.00;101956.22;5036792;28;20012;-74
2023/08/23 05:31:53;;;;;;;;;;;;;;;13.77;100.00;101956.53;5034778;28;20067;-74
2023/08/23 05:34:19;;;;;;;;;;;;;;;13.88;100.00;101960.28;5037200;28;20046;-74
2023/08/23 05:36:44;;;;;;;;;;;;;;;13.96;100.00;101955.16;5031379;28;20062;-74
2023/08/23 05:39:09;;;;;;;;;;;;;;;14.04;100.00;101960.84;5065344;28;20350;-73
2023/08/23 05:41:34;;;;;;;;;;;;;;;14.07;100.00;101952.53;5035485;28;19920;-74
2023/08/23 05:43:59;;;;;;;;;;;;;;;14.03;100.00;101947.47;5029992;28;19921;-74
2023/08/23 05:46:25;;;;;;;;;;;;;;;14.02;100.00;101952.00;5035356;28;19956;-74
2023/08/23 05:48:50;;;;;;;;;;;;;;;14.01;100.00;101960.22;5047929;28;20044;-73
2023/08/23 05:51:15;;;;;;;;;;;;;;;14.06;100.00;101949.91;5046983;28;19970;-74
2023/08/23 05:53:40;;;;;;;;;;;;;;;14.18;100.00;101962.50;5065668;28;20028;-73
2023/08/23 05:56:06;;;;;;;;;;;;;;;14.29;100.00;101956.31;5034626;28;20401;-74
2023/08/23 05:58:31;;;;;;;;;;;;;;;14.37;100.00;101959.28;5051295;28;19921;-73
2023/08/23 06:00:56;;;;;;;;;;;;;;;14.46;100.00;101960.41;5045303;28;19952;-73
2023/08/23 06:03:21;;;;;;;;;;;;;;;14.61;100.00;101969.19;5063516;28;20011;-73
2023/08/23 06:05:47;;;;;;;;;;;;;;;14.72;100.00;101970.22;5042819;28;20064;-73
2023/08/23 06:08:12;;;;;;;;;;;;;;;14.85;100.00;101973.69;5051502;28;19972;-73
2023/08/23 06:10:37;;;;;;;;;;;;;;;14.94;100.00;101970.28;5061171;28;20324;-74
2023/08/23 06:13:02;;;;;;;;;;;;;;;15.01;100.00;101978.75;5034493;28;19968;-73
2023/08/23 06:15:28;;;;;;;;;;;;;;;15.08;100.00;101974.59;5067093;28;20008;-74
2023/08/23 06:17:54;;;;;;;;;;;;;;;15.14;100.00;101981.38;5031814;28;19921;-73
2023/08/23 06:20:19;;;;;;;;;;;;;;;15.19;100.00;101965.63;5063703;28;20449;-73
2023/08/23 06:22:44;;;;;;;;;;;;;;;15.24;100.00;101974.22;5062841;28;19920;-73
2023/08/23 06:25:09;;;;;;;;;;;;;;;15.30;100.00;101970.19;5043056;28;20067;-74
2023/08/23 06:27:35;;;;;;;;;;;;;;;15.41;100.00;101980.13;5020288;28;19928;-74
2023/08/23 06:30:00;;;;;;;;;;;;;;;15.57;100.00;101977.91;5049681;28;19961;-73
2023/08/23 06:32:25;;;;;;;;;;;;;;;15.73;100.00;101977.50;5033566;28;20048;-74
2023/08/23 06:34:53;;;;;;;;;;;;;;;15.87;100.00;101983.69;5033587;28;19940;-73
2023/08/23 06:37:18;;;;;;;;;;;;;;;15.96;100.00;101985.63;5030058;28;19924;-72
2023/08/23 06:39:43;;;;;;;;;;;;;;;16.04;100.00;101988.56;5067746;28;19924;-75
2023/08/23 06:42:08;;;;;;;;;;;;;;;16.15;100.00;101993.09;5050551;28;20475;-74
2023/08/23 06:44:33;;;;;;;;;;;;;;;16.30;100.00;101981.94;5043193;28;20573;-71
2023/08/23 06:46:59;;;;;;;;;;;;;;;16.46;100.00;101993.22;5048421;28;19927;-73
2023/08/23 06:49:24;;;;;;;;;;;;;;;16.57;100.00;101994.13;5066359;28;19920;-73
2023/08/23 06:51:49;;;;;;;;;;;;;;;16.71;100.00;101995.66;5032664;28;19947;-74
2023/08/23 06:54:14;;;;;;;;;;;;;;;16.77;100.00;101992.44;5035481;28;19928;-75
2023/08/23 06:56:40;;;;;;;;;;;;;;;16.94;100.00;101988.25;5047469;28;20007;-74
2023/08/23 06:59:05;;;;;;;;;;;;;;;17.01;100.00;101992.19;5043157;28;19932;-74
2023/08/23 07:01:30;;;;;;;;;;;;;;;17.12;100.00;101990.38;5018653;28;19966;-75
2023/08/23 07:03:55;;;;;;;;;;;;;;;17.28;100.00;101993.47;5035177;28;19919;-75
2023/08/23 07:06:20;;;;;;;;;;;;;;;17.37;100.00;101989.94;5034709;28;19920;-74
2023/08/23 07:08:46;;;;;;;;;;;;;;;17.54;100.00;101988.44;5065189;28;19913;-75
2023/08/23 07:11:11;;;;;;;;;;;;;;;17.68;100.00;101992.63;5060489;28;20589;-75
2023/08/23 07:13:38;;;;;;;;;;;;;;;17.84;100.00;101997.53;5065507;28;19913;-73
2023/08/23 07:16:03;;;;;;;;;;;;;;;17.94;100.00;102000.25;5065080;28;19928;-75
2023/08/23 07:18:29;;;;;;;;;;;;;;;18.09;100.00;102000.75;5064642;28;20664;-74
2023/08/23 07:20:54;;;;;;;;;;;;;;;18.17;100.00;102005.47;5062527;28;19925;-74
2023/08/23 07:23:21;;;;;;;;;;;;;;;18.34;100.00;101994.91;5042980;28;20312;-76
2023/08/23 07:25:46;;;;;;;;;;;;;;;18.52;100.00;101997.78;5062152;28;20359;-74
2023/08/23 07:28:12;;;;;;;;;;;;;;;18.70;100.00;101996.03;5032165;28;20301;-74
2023/08/23 07:30:37;;;;;;;;;;;;;;;18.74;100.00;101997.47;5063033;28;20074;-73
2023/08/23 07:33:03;;;;;;;;;;;;;;;18.87;100.00;102001.72;5035275;28;19967;-74
2023/08/23 07:35:28;;;;;;;;;;;;;;;18.92;100.00;102002.16;5062270;28;19920;-74
2023/08/23 07:37:53;;;;;;;;;;;;;;;19.06;100.00;102008.19;5033477;28;19920;-73
2023/08/23 07:40:18;;;;;;;;;;;;;;;19.18;100.00;102010.59;5064933;28;19952;-75
2023/08/23 07:42:44;;;;;;;;;;;;;;;19.21;100.00;102005.81;5032368;28;20015;-75
2023/08/23 07:45:09;;;;;;;;;;;;;;;19.39;100.00;102014.09;5042263;28;19927;-73
2023/08/23 07:47:35;;;;;;;;;;;;;;;19.32;100.00;101998.38;5016011;28;19924;-74
2023/08/23 07:50:00;;;;;;;;;;;;;;;19.70;100.00;102013.81;5062979;28;19920;-74
2023/08/23 07:52:25;;;;;;;;;;;;;;;19.83;100.00;102006.16;5061528;28;20185;-75
2023/08/23 07:54:50;;;;;;;;;;;;;;;19.95;100.00;102012.28;5047437;28;19972;-73
2023/08/23 07:57:15;;;;;;;;;;;;;;;20.08;100.00;102007.28;5065567;28;19943;-74
2023/08/23 07:59:41;;;;;;;;;;;;;;;20.20;100.00;102007.09;5042475;28;19933;-73
2023/08/23 08:02:06;;;;;;;;;;;;;;;20.25;100.00;102002.03;5030748;28;20034;-74
2023/08/23 08:04:32;;;;;;;;;;;;;;;20.30;100.00;102010.56;5014443;28;19987;-73
2023/08/23 08:06:57;;;;;;;;;;;;;;;20.46;100.00;102012.59;5044404;28;19929;-74
2023/08/23 08:09:22;;;;;;;;;;;;;;;20.70;100.00;102011.09;5035601;28;19962;-73
2023/08/23 08:11:48;;;;;;;;;;;;;;;20.82;100.00;102015.31;5037031;28;19982;-75
2023/08/23 08:14:13;;;;;;;;;;;;;;;20.73;100.00;102009.94;5065535;28;20318;-72
2023/08/23 08:16:38;;;;;;;;;;;;;;;20.79;100.00;102003.88;5045914;28;19921;-72
2023/08/23 08:19:03;;;;;;;;;;;;;;;20.95;100.00;102006.72;5014678;28;19968;-73
2023/08/23 08:21:28;;;;;;;;;;;;;;;20.95;100.00;102003.13;5016318;28;20047;-73
2023/08/23 08:23:54;;;;;;;;;;;;;;;21.19;100.00;102004.31;5020228;28;20047;-74
2023/08/23 08:26:19;;;;;;;;;;;;;;;;;;5035554;28;19925;-74
2023/08/23 08:28:45;;;;;;;;;;;;;;;21.23;100.00;102006.56;5065675;28;19917;-74
2023/08/23 08:31:11;;;;;;;;;;;;;;;21.23;100.00;102016.59;5050024;28;19967;-74
2023/08/23 08:33:37;;;;;;;;;;;;;;;21.41;100.00;102017.41;5033456;28;20352;-75
2023/08/23 08:36:02;;;;;;;;;;;;;;;21.38;100.00;102016.84;5035216;28;19972;-75
2023/08/23 08:38:27;;;;;;;;;;;;;;;21.52;100.00;102021.72;5067659;28;20036;-72
2023/08/23 08:40:52;;;;;;;;;;;;;;;21.73;100.00;102020.47;5067719;28;20275;-74
2023/08/23 08:43:18;;;;;;;;;;;;;;;21.82;100.00;102011.28;5070268;28;19932;-73
2023/08/23 08:45:44;;;;;;;;;;;;;;;21.73;100.00;102004.91;5035703;28;19927;-74
2023/08/23 08:48:09;;;;;;;;;;;;;;;21.76;100.00;102002.88;5049411;28;20622;-73
2023/08/23 08:50:34;;;;;;;;;;;;;;;21.63;100.00;102006.94;5033063;28;19959;-75
2023/08/23 08:53:00;;;;;;;;;;;;;;;21.75;100.00;102007.50;5033783;28;20019;-74
2023/08/23 08:55:25;;;;;;;;;;;;;;;22.02;100.00;101998.16;5047436;28;20351;-73
2023/08/23 08:57:53;;;;;;;;;;;;;;;22.27;100.00;101997.38;5034003;28;20348;-73
2023/08/23 09:00:18;;;;;;;;;;;;;;;22.49;100.00;102001.38;5027200;28;20370;-74
2023/08/23 09:02:43;;;;;;;;;;;;;;;22.21;100.00;102006.25;5043712;28;19925;-74
2023/08/23 09:05:08;;;;;;;;;;;;;;;22.21;100.00;101977.03;5063491;28;19921;-74
2023/08/23 09:07:34;;;;;;;;;;;;;;;22.37;100.00;102000.81;5057551;28;19920;-76
2023/08/23 09:09:59;;;;;;;;;;;;;;;22.37;100.00;102002.69;5033013;28;19956;-73
2023/08/23 09:12:24;;;;;;;;;;;;;;;22.41;100.00;101998.59;5032913;28;20015;-72
2023/08/23 09:14:50;;;;;;;;;;;;;;;22.72;100.00;102000.66;5060311;28;20267;-72
2023/08/23 09:17:15;;;;;;;;;;;;;;;22.69;100.00;101993.63;5042133;28;19925;-73
2023/08/23 09:19:40;;;;;;;;;;;;;;;22.83;100.00;101993.97;5046575;28;19929;-72
2023/08/23 09:22:06;;;;;;;;;;;;;;;22.94;100.00;101992.78;5046096;28;19920;-75
2023/08/23 09:24:31;;;;;;;;;;;;;;;23.19;100.00;101994.41;5032418;28;20128;-73
2023/08/23 09:26:56;;;;;;;;;;;;;;;23.05;100.00;101990.53;5016879;28;19956;-73
2023/08/23 09:29:23;;;;;;;;;;;;;;;23.35;100.00;101987.19;5065319;28;19932;-74
2023/08/23 09:31:48;;;;;;;;;;;;;;;23.60;100.00;101987.97;5051337;28;19944;-72
2023/08/23 09:34:14;;;;;;;;;;;;;;;23.79;100.00;101994.03;5061130;28;20235;-74
2023/08/23 09:36:42;;;;;;;;;;;;;;;23.66;100.00;101990.00;5046244;28;19956;-74
2023/08/23 09:39:09;;;;;;;;;;;;;;;23.89;100.00;101983.72;5019765;28;19932;-74
2023/08/23 09:41:38;;;;;;;;;;;;;;;23.77;100.00;101994.22;5031150;28;19916;-75
2023/08/23 09:44:03;;;;;;;;;;;;;;;23.92;100.00;101997.06;5046748;28;20000;-74
2023/08/23 09:46:29;;;;;;;;;;;;;;;24.17;100.00;101996.06;5064400;28;19921;-73
2023/08/23 09:48:54;;;;;;;;;;;;;;;24.38;94.52;102000.88;5041269;28;19920;-74
2023/08/23 09:51:22;;;;;;;;;;;;;;;24.54;94.68;101999.91;5030670;28;19917;-74
2023/08/23 09:53:48;;;;;;;;;;;;;;;24.76;89.26;101995.47;5033063;28;19932;-72
2023/08/23 09:56:13;;;;;;;;;;;;;;;24.96;95.38;101990.25;5041607;28;20440;-72
2023/08/23 09:58:38;;;;;;;;;;;;;;;25.01;90.00;101995.22;5045712;28;19921;-73
2023/08/23 10:01:03;;;;;;;;;;;;;;;25.04;93.95;101996.72;5024729;28;19979;-73
2023/08/23 10:03:29;;;;;;;;;;;;;;;24.39;94.13;101986.97;5015086;28;19972;-73
2023/08/23 10:05:54;;;;;;;;;;;;;;;24.32;90.34;101985.16;5015801;28;19921;-73
2023/08/23 10:08:19;;;;;;;;;;;;;;;24.84;98.59;101984.38;5011061;28;19933;-73
2023/08/23 10:10:45;;;;;;;;;;;;;;;25.24;90.80;101986.88;5032238;28;20221;-72
2023/08/23 10:13:11;;;;;;;;;;;;;;;25.40;85.50;101988.56;5061057;28;19944;-72
2023/08/23 10:15:37;;;;;;;;;;;;;;;25.65;89.13;101987.44;5029671;28;19932;-72
2023/08/23 10:18:02;;;;;;;;;;;;;;;25.42;82.08;101985.66;5063349;28;20455;-74
2023/08/23 10:20:28;;;;;;;;;;;;;;;25.05;91.35;101984.69;5029849;28;19925;-73
2023/08/23 10:22:54;;;;;;;;;;;;;;;25.29;87.12;101994.56;5033270;28;19952;-72
2023/08/23 10:25:20;;;;;;;;;;;;;;;25.18;92.56;101989.53;5034060;28;19920;-73
2023/08/23 10:27:46;;;;;;;;;;;;;;;25.75;83.97;101986.09;5065552;28;19928;-73
2023/08/23 10:30:14;;;;;;;;;;;;;;;25.99;78.01;101973.03;5035190;28;19935;-73
2023/08/23 10:32:39;;;;;;;;;;;;;;;26.08;71.53;101981.16;5049127;28;19917;-74
2023/08/23 10:35:18;;;;;;;;;;;;;;;26.12;80.00;101983.34;5032948;28;19923;-75
2023/08/23 10:37:43;;;;;;;;;;;;;;;26.46;77.77;101978.16;5032524;28;20011;-72
2023/08/23 10:40:09;;;;;;;;;;;;;;;26.63;62.85;101965.78;5036162;28;19963;-73
2023/08/23 10:42:34;;;;;;;;;;;;;;;26.63;70.90;101973.22;5049582;28;19921;-75
2023/08/23 10:45:00;;;;;;;;;;;;;;;27.01;68.49;101969.28;5063406;28;19920;-73
2023/08/23 10:47:25;;;;;;;;;;;;;;;27.14;65.95;101977.66;5064734;28;19971;-76
2023/08/23 10:49:51;;;;;;;;;;;;;;;27.45;57.27;101970.78;5034785;28;19924;-73
2023/08/23 10:52:16;;;;;;;;;;;;;;;27.80;53.02;101973.50;5062476;28;19920;-72
2023/08/23 10:54:42;;;;;;;;;;;;;;;27.94;56.35;101970.78;5035235;28;20504;-74
2023/08/23 10:57:07;;;;;;;;;;;;;;;27.53;53.10;101969.81;5062488;28;19924;-74
2023/08/23 10:59:32;;;;;;;;;;;;;;;27.75;56.65;101967.75;5064925;28;20398;-74
2023/08/23 11:01:57;;;;;;;;;;;;;;;27.51;59.92;101967.25;5036705;28;20322;-74
2023/08/23 11:04:23;;;;;;;;;;;;;;;28.11;53.99;101972.13;5063604;28;20350;-75
2023/08/23 11:06:48;;;;;;;;;;;;;;;27.84;51.84;101962.88;5017337;28;20358;-74
2023/08/23 11:09:15;;;;;;;;;;;;;;;28.61;45.27;101962.59;5064560;28;20048;-74
2023/08/23 11:11:40;;;;;;;;;;;;;;;29.08;50.99;101962.56;5033609;28;19921;-74
2023/08/23 11:14:05;;;;;;;;;;;;;;;28.83;48.03;101959.63;5033520;28;19924;-70
2023/08/23 11:16:30;;;;;;;;;;;;;;;28.41;48.72;101949.66;5034984;28;19931;-71
2023/08/23 11:18:56;;;;;;;;;;;;;;;28.69;49.09;101945.81;5035445;28;19925;-75
2023/08/23 11:21:21;;;;;;;;;;;;;;;29.43;43.80;101942.03;5046535;28;19963;-74
2023/08/23 11:23:47;;;;;;;;;;;;;;;30.07;41.83;101940.19;5063149;28;20485;-72
2023/08/23 11:26:13;;;;;;;;;;;;;;;30.59;43.10;101932.78;5063492;28;19948;-71
2023/08/23 11:28:38;;;;;;;;;;;;;;;30.85;42.10;101933.59;5063268;28;19948;-74
2023/08/23 11:31:06;;;;;;;;;;;;;;;31.08;40.72;101933.75;5061994;28;19925;-75
2023/08/23 11:33:32;;;;;;;;;;;;;;;31.28;40.30;101929.91;5033554;28;19928;-73
2023/08/23 11:35:57;;;;;;;;;;;;;;;31.69;40.23;101925.50;5033970;28;19981;-74
2023/08/23 11:38:26;;;;;;;;;;;;;;;32.37;38.58;101907.84;5062570;28;19921;-75
2023/08/23 11:40:51;;;;;;;;;;;;;;;31.28;40.88;101918.81;5061261;28;20277;-76
2023/08/23 11:43:17;;;;;;;;;;;;;;;31.70;40.77;101923.59;5034296;28;19931;-73
2023/08/23 11:45:42;;;;;;;;;;;;;;;32.34;38.74;101925.00;5034644;28;19924;-74
2023/08/23 11:48:09;;;;;;;;;;;;;;;32.51;37.13;101925.13;5043631;28;19983;-73
2023/08/23 11:50:34;;;;;;;;;;;;;;;32.96;36.16;101924.50;5036024;28;19971;-74
2023/08/23 11:53:03;;;;;;;;;;;;;;;33.41;36.39;101934.09;5034022;28;20200;-74
2023/08/23 11:55:28;;;;;;;;;;;;;;;33.51;35.19;101939.03;5034206;28;20407;-75
2023/08/23 11:57:56;;;;;;;;;;;;;;;32.56;39.39;101923.31;5049383;28;19990;-75
2023/08/23 12:00:22;;;;;;;;;;;;;;;32.55;37.34;101932.72;5035678;28;19936;-74
2023/08/23 12:02:48;;;;;;;;;;;;;;;33.29;39.65;101933.25;5067311;28;19925;-75
2023/08/23 12:05:14;;;;;;;;;;;;;;;32.43;41.33;101929.13;5031644;28;19916;-73
2023/08/23 12:07:40;;;;;;;;;;;;;;;32.96;35.88;101926.47;5034068;28;19958;-75
2023/08/23 12:10:08;;;;;;;;;;;;;;;33.46;37.44;101925.84;5034133;28;19920;-74
2023/08/23 12:12:33;;;;;;;;;;;;;;;33.84;34.84;101937.41;5037486;28;19927;-75
2023/08/23 12:14:59;;;;;;;;;;;;;;;33.86;35.33;101931.59;5035128;28;19917;-75
2023/08/23 12:17:24;;;;;;;;;;;;;;;34.59;33.81;101930.91;5030867;28;19963;-74
2023/08/23 12:19:49;;;;;;;;;;;;;;;34.43;34.14;101927.88;5061969;28;19924;-74
2023/08/23 12:22:14;;;;;;;;;;;;;;;34.14;35.73;101924.31;5043531;28;19924;-74